createdAt,value
2023-05-14T00:02:14.888Z,11.79
2023-05-14T00:04:41.608Z,11.68
2023-05-14T00:07:08.276Z,11.58
2023-05-14T00:09:35.470Z,11.67
2023-05-14T00:12:04.826Z,11.76
2023-05-14T00:14:31.572Z,11.52
2023-05-14T00:16:59.587Z,11.34
2023-05-14T00:19:26.498Z,11.47
2023-05-14T00:21:53.137Z,11.55
2023-05-14T00:24:19.735Z,11.59
2023-05-14T00:26:46.460Z,11.66
2023-05-14T00:29:15.330Z,11.71
2023-05-14T00:31:42.121Z,11.59
2023-05-14T00:34:08.930Z,11.55
2023-05-14T00:36:37.904Z,11.61
2023-05-14T00:39:06.752Z,11.63
2023-05-14T00:41:33.400Z,11.58
2023-05-14T00:44:00.100Z,11.56
2023-05-14T00:46:27.352Z,11.66
2023-05-14T00:48:54.296Z,11.69
2023-05-14T00:51:27.949Z,11.58
2023-05-14T00:53:57.282Z,11.47
2023-05-14T00:56:24.884Z,11.51
2023-05-14T00:58:53.693Z,11.36
2023-05-14T01:01:22.878Z,11.30
2023-05-14T01:03:49.876Z,11.42
2023-05-14T01:07:07.715Z,11.42
2023-05-14T01:09:50.059Z,11.05
2023-05-14T01:12:30.082Z,11.20
2023-05-14T01:15:13.818Z,11.22
2023-05-14T01:17:51.020Z,11.09
2023-05-14T01:20:18.275Z,10.93
2023-05-14T01:22:47.032Z,11.03
2023-05-14T01:25:13.618Z,11.06
2023-05-14T01:27:50.100Z,11.19
2023-05-14T01:30:22.072Z,11.21
2023-05-14T01:32:54.834Z,10.93
2023-05-14T01:35:25.754Z,10.85
2023-05-14T01:37:57.665Z,10.92
2023-05-14T01:40:28.169Z,10.96
2023-05-14T01:42:55.412Z,10.84
2023-05-14T01:45:22.793Z,10.80
2023-05-14T01:47:52.549Z,10.60
2023-05-14T01:50:19.257Z,10.59
2023-05-14T01:52:46.021Z,10.52
2023-05-14T01:55:15.823Z,10.54
2023-05-14T01:57:42.331Z,10.61
2023-05-14T02:00:12.131Z,10.66
2023-05-14T02:02:38.949Z,10.44
2023-05-14T02:05:07.000Z,10.39
2023-05-14T02:07:33.981Z,10.36
2023-05-14T02:10:02.719Z,10.55
2023-05-14T02:12:29.366Z,10.41
2023-05-14T02:14:55.961Z,10.47
2023-05-14T02:17:22.505Z,10.39
2023-05-14T02:19:51.456Z,10.49
2023-05-14T02:22:18.050Z,10.36
2023-05-14T02:24:44.626Z,10.38
2023-05-14T02:27:12.900Z,10.47
2023-05-14T02:29:42.459Z,10.57
2023-05-14T02:32:09.223Z,10.74
2023-05-14T02:34:35.859Z,10.77
2023-05-14T02:37:05.001Z,10.83
2023-05-14T02:39:33.831Z,10.88
2023-05-14T02:42:03.158Z,10.67
2023-05-14T02:44:32.381Z,10.70
2023-05-14T02:46:58.966Z,10.79
2023-05-14T02:49:25.601Z,10.72
2023-05-14T02:51:54.516Z,10.89
2023-05-14T02:54:25.725Z,10.94
2023-05-14T02:56:54.809Z,10.54
2023-05-14T02:59:21.344Z,10.48
2023-05-14T03:01:48.448Z,10.68
2023-05-14T03:04:20.005Z,10.82
2023-05-14T03:06:49.226Z,10.88
2023-05-14T03:09:15.769Z,10.79
2023-05-14T03:11:44.559Z,10.55
2023-05-14T03:14:13.339Z,10.68
2023-05-14T03:16:42.541Z,10.78
2023-05-14T03:19:09.952Z,10.63
2023-05-14T03:21:39.368Z,10.79
2023-05-14T03:24:06.174Z,10.68
2023-05-14T03:26:35.035Z,10.76
2023-05-14T03:29:02.448Z,10.78
2023-05-14T03:31:31.674Z,10.80
2023-05-14T03:33:58.438Z,10.90
2023-05-14T03:36:25.073Z,10.93
2023-05-14T03:38:56.847Z,10.98
2023-05-14T03:41:26.865Z,10.91
2023-05-14T03:43:53.454Z,10.94
2023-05-14T03:46:22.069Z,10.94
2023-05-14T03:48:48.641Z,10.87
2023-05-14T03:51:19.933Z,10.94
2023-05-14T03:53:49.227Z,11.05
2023-05-14T03:56:18.131Z,11.00
2023-05-14T03:58:47.280Z,10.98
2023-05-14T04:01:16.063Z,10.98
2023-05-14T04:03:45.115Z,11.01
2023-05-14T04:06:13.799Z,10.95
2023-05-14T04:08:40.327Z,10.99
2023-05-14T04:11:09.049Z,10.95
2023-05-14T04:13:35.618Z,11.08
2023-05-14T04:16:04.923Z,11.16
2023-05-14T04:18:35.019Z,11.13
2023-05-14T04:21:04.221Z,11.16
2023-05-14T04:23:31.866Z,11.18
2023-05-14T04:26:01.870Z,11.15
2023-05-14T04:28:31.446Z,10.99
2023-05-14T04:31:00.501Z,11.07
2023-05-14T04:33:26.980Z,11.13
2023-05-14T04:35:55.873Z,11.06
2023-05-14T04:38:23.277Z,11.01
2023-05-14T04:40:49.817Z,11.13
2023-05-14T04:43:17.533Z,11.00
2023-05-14T04:45:44.290Z,11.10
2023-05-14T04:48:11.121Z,11.19
2023-05-14T04:50:40.018Z,11.19
2023-05-14T04:53:08.760Z,11.13
2023-05-14T04:55:35.335Z,11.17
2023-05-14T04:58:04.553Z,11.22
2023-05-14T05:00:33.537Z,11.32
2023-05-14T05:03:02.638Z,11.20
2023-05-14T05:05:29.278Z,11.18
2023-05-14T05:07:58.213Z,11.17
2023-05-14T05:10:25.338Z,11.17
2023-05-14T05:12:52.124Z,11.26
2023-05-14T05:15:23.260Z,11.05
2023-05-14T05:17:50.773Z,11.25
2023-05-14T05:20:20.262Z,11.16
2023-05-14T05:22:46.911Z,11.22
2023-05-14T05:25:16.240Z,11.18
2023-05-14T05:27:42.778Z,11.18
2023-05-14T05:30:09.973Z,11.12
2023-05-14T05:32:38.855Z,10.97
2023-05-14T05:35:06.565Z,11.06
2023-05-14T05:37:33.168Z,11.13
2023-05-14T05:40:04.102Z,11.04
2023-05-14T05:42:33.663Z,11.11
2023-05-14T05:45:00.218Z,11.01
2023-05-14T05:47:26.896Z,11.01
2023-05-14T05:49:54.092Z,11.08
2023-05-14T05:52:20.887Z,11.20
2023-05-14T05:54:49.998Z,11.20
2023-05-14T05:57:16.496Z,11.27
2023-05-14T05:59:45.895Z,11.25
2023-05-14T06:02:12.646Z,11.28
2023-05-14T06:04:41.705Z,11.25
2023-05-14T06:07:08.215Z,11.14
2023-05-14T06:09:34.782Z,11.06
2023-05-14T06:12:03.448Z,11.12
2023-05-14T06:14:32.518Z,11.17
2023-05-14T06:16:59.003Z,11.03
2023-05-14T06:19:25.665Z,11.10
2023-05-14T06:21:52.220Z,11.20
2023-05-14T06:24:21.356Z,11.24
2023-05-14T06:26:49.338Z,11.26
2023-05-14T06:29:16.012Z,11.30
2023-05-14T06:31:45.024Z,11.38
2023-05-14T06:34:13.877Z,11.33
2023-05-14T06:36:42.657Z,11.33
2023-05-14T06:39:12.554Z,11.38
2023-05-14T06:41:41.481Z,11.29
2023-05-14T06:44:12.836Z,11.31
2023-05-14T06:46:39.788Z,11.45
2023-05-14T06:49:06.516Z,11.32
2023-05-14T06:51:33.289Z,11.36
2023-05-14T06:53:59.970Z,11.33
2023-05-14T06:56:26.622Z,11.39
2023-05-14T06:58:55.400Z,11.51
2023-05-14T07:01:22.617Z,11.41
2023-05-14T07:03:49.299Z,11.17
2023-05-14T07:06:18.129Z,11.29
2023-05-14T07:08:49.916Z,11.45
2023-05-14T07:11:16.551Z,11.56
2023-05-14T07:13:45.634Z,11.58
2023-05-14T07:16:12.118Z,11.45
2023-05-14T07:18:38.729Z,11.42
2023-05-14T07:21:07.843Z,11.54
2023-05-14T07:23:37.201Z,11.54
2023-05-14T07:26:08.011Z,11.63
2023-05-14T07:28:37.917Z,11.68
2023-05-14T07:31:08.885Z,11.72
2023-05-14T07:33:40.661Z,11.80
2023-05-14T07:36:09.954Z,11.85
2023-05-14T07:38:38.817Z,12.09
2023-05-14T07:41:05.531Z,12.15
2023-05-14T07:43:34.629Z,12.05
2023-05-14T07:46:01.084Z,12.13
2023-05-14T07:48:27.650Z,12.04
2023-05-14T07:50:54.318Z,12.10
2023-05-14T07:53:21.082Z,12.23
2023-05-14T07:55:48.862Z,12.32
2023-05-14T07:58:16.166Z,12.50
2023-05-14T08:00:42.750Z,12.58
2023-05-14T08:03:09.434Z,12.66
2023-05-14T08:05:38.360Z,12.58
2023-05-14T08:08:10.697Z,12.64
2023-05-14T08:10:40.109Z,12.69
2023-05-14T08:13:09.680Z,12.46
2023-05-14T08:15:38.488Z,12.49
2023-05-14T08:18:05.062Z,12.53
2023-05-14T08:20:34.089Z,12.38
2023-05-14T08:23:00.650Z,12.27
2023-05-14T08:25:30.069Z,12.37
2023-05-14T08:27:56.633Z,12.46
2023-05-14T08:30:23.600Z,12.50
2023-05-14T08:32:50.492Z,12.41
2023-05-14T08:35:18.105Z,12.33
2023-05-14T08:37:47.903Z,12.30
2023-05-14T08:40:14.612Z,12.30
2023-05-14T08:42:41.770Z,12.31
2023-05-14T08:45:15.328Z,12.36
2023-05-14T08:47:44.018Z,12.30
2023-05-14T08:50:13.401Z,12.25
2023-05-14T08:52:42.542Z,12.32
2023-05-14T08:55:13.171Z,12.45
2023-05-14T08:57:40.208Z,12.55
2023-05-14T09:00:08.649Z,12.47
2023-05-14T09:02:36.770Z,12.55
2023-05-14T09:05:07.376Z,12.43
2023-05-14T09:07:36.611Z,12.49
2023-05-14T09:10:04.033Z,12.54
2023-05-14T09:12:32.978Z,12.42
2023-05-14T09:14:59.531Z,12.48
2023-05-14T09:17:33.766Z,12.47
2023-05-14T09:20:00.652Z,12.63
2023-05-14T09:22:32.065Z,12.59
2023-05-14T09:25:05.806Z,12.66
2023-05-14T09:27:33.350Z,12.80
2023-05-14T09:30:11.777Z,12.91
2023-05-14T09:32:48.734Z,12.95
2023-05-14T09:35:17.747Z,12.95
2023-05-14T09:37:46.798Z,12.78
2023-05-14T09:40:16.543Z,12.64
2023-05-14T09:42:43.168Z,12.79
2023-05-14T09:45:10.891Z,12.87
2023-05-14T09:47:40.835Z,12.85
2023-05-14T09:50:08.344Z,13.02
2023-05-14T09:52:38.464Z,13.05
2023-05-14T09:55:05.667Z,12.91
2023-05-14T09:57:34.676Z,12.89
2023-05-14T10:00:01.158Z,12.83
2023-05-14T10:02:37.652Z,12.61
2023-05-14T10:05:07.859Z,12.65
2023-05-14T10:07:42.606Z,12.53
2023-05-14T10:10:13.654Z,12.58
2023-05-14T10:12:40.742Z,12.61
2023-05-14T10:15:19.083Z,12.52
2023-05-14T10:17:51.944Z,12.62
2023-05-14T10:20:22.941Z,12.64
2023-05-14T10:22:49.711Z,12.75
2023-05-14T10:25:16.822Z,12.61
2023-05-14T10:27:44.125Z,12.65
2023-05-14T10:30:14.631Z,12.73
2023-05-14T10:32:42.140Z,12.96
2023-05-14T10:35:20.806Z,12.85
2023-05-14T10:37:51.216Z,12.69
2023-05-14T10:40:19.310Z,12.56
2023-05-14T10:42:51.833Z,12.60
2023-05-14T10:45:18.461Z,12.66
2023-05-14T10:47:51.128Z,12.60
2023-05-14T10:50:21.445Z,12.72
2023-05-14T10:52:51.346Z,12.66
2023-05-14T10:55:18.359Z,12.59
2023-05-14T10:57:46.325Z,12.61
2023-05-14T11:00:18.297Z,12.68
2023-05-14T11:02:45.174Z,12.71
2023-05-14T11:05:17.672Z,12.61
2023-05-14T11:07:50.005Z,12.62
2023-05-14T11:10:18.531Z,12.57
2023-05-14T11:12:50.884Z,12.48
2023-05-14T11:15:20.242Z,12.38
2023-05-14T11:17:48.358Z,12.31
2023-05-14T11:20:16.692Z,12.34
2023-05-14T11:22:44.431Z,12.38
2023-05-14T11:25:14.870Z,12.37
2023-05-14T11:27:43.909Z,12.46
2023-05-14T11:30:19.515Z,12.43
2023-05-14T11:32:47.820Z,12.48
2023-05-14T11:35:15.429Z,12.41
2023-05-14T11:37:42.874Z,12.43
2023-05-14T11:40:18.954Z,12.39
2023-05-14T11:42:45.938Z,12.41
2023-05-14T11:45:13.470Z,12.45
2023-05-14T11:47:41.876Z,12.45
2023-05-14T11:50:09.859Z,12.52
2023-05-14T11:52:43.709Z,12.34
2023-05-14T11:55:13.353Z,12.34
2023-05-14T11:57:42.964Z,12.38
2023-05-14T12:00:14.520Z,12.29
2023-05-14T12:02:44.142Z,12.26
2023-05-14T12:05:13.002Z,12.17
2023-05-14T12:07:39.783Z,12.20
2023-05-14T12:10:07.295Z,12.20
2023-05-14T12:12:37.318Z,12.11
2023-05-14T12:15:16.954Z,12.08
2023-05-14T12:17:52.534Z,12.10
2023-05-14T12:20:26.385Z,12.16
2023-05-14T12:22:53.062Z,12.20
2023-05-14T12:25:19.699Z,12.25
2023-05-14T12:27:48.507Z,12.22
2023-05-14T12:30:27.382Z,12.22
2023-05-14T12:32:54.081Z,12.06
2023-05-14T12:35:24.141Z,12.10
2023-05-14T12:37:50.964Z,12.10
2023-05-14T12:40:17.551Z,11.94
2023-05-14T12:42:48.955Z,12.02
2023-05-14T12:45:15.657Z,11.93
2023-05-14T12:47:42.225Z,11.97
2023-05-14T12:50:09.195Z,11.96
2023-05-14T12:52:39.171Z,11.88
2023-05-14T12:55:10.014Z,11.91
2023-05-14T12:57:39.767Z,11.93
2023-05-14T13:00:08.424Z,12.02
2023-05-14T13:02:42.133Z,12.03
2023-05-14T13:05:09.391Z,11.99
2023-05-14T13:07:36.162Z,11.98
2023-05-14T13:10:05.507Z,11.97
2023-05-14T13:12:34.337Z,11.91
2023-05-14T13:15:05.979Z,11.91
2023-05-14T13:17:32.685Z,11.92
2023-05-14T13:20:04.840Z,11.82
2023-05-14T13:22:31.418Z,11.93
2023-05-14T13:25:00.545Z,11.93
2023-05-14T13:27:27.219Z,11.93
2023-05-14T13:29:53.850Z,11.81
2023-05-14T13:32:20.446Z,11.71
2023-05-14T13:34:49.272Z,11.79
2023-05-14T13:37:15.889Z,11.89
2023-05-14T13:39:45.024Z,11.92
2023-05-14T13:42:11.645Z,11.85
2023-05-14T13:44:40.318Z,11.86
2023-05-14T13:47:07.216Z,11.67
2023-05-14T13:49:33.808Z,11.83
2023-05-14T13:52:02.442Z,11.87
2023-05-14T13:54:31.779Z,11.83
2023-05-14T13:57:01.336Z,11.90
2023-05-14T13:59:27.956Z,11.95
2023-05-14T14:01:54.681Z,11.89
2023-05-14T14:04:25.658Z,11.86
2023-05-14T14:06:52.169Z,11.84
2023-05-14T14:09:18.742Z,11.96
2023-05-14T14:11:47.580Z,12.04
2023-05-14T14:14:14.318Z,11.98
2023-05-14T14:16:41.112Z,12.02
2023-05-14T14:19:10.291Z,11.94
2023-05-14T14:21:39.697Z,11.89
2023-05-14T14:24:08.622Z,11.93
2023-05-14T14:26:35.255Z,12.04
2023-05-14T14:29:04.838Z,12.02
2023-05-14T14:31:34.950Z,12.13
2023-05-14T14:34:03.655Z,12.14
2023-05-14T14:36:30.746Z,12.10
2023-05-14T14:39:02.310Z,12.12
2023-05-14T14:41:28.917Z,11.98
2023-05-14T14:43:55.520Z,12.00
2023-05-14T14:46:22.221Z,11.95
2023-05-14T14:48:48.860Z,12.03
2023-05-14T14:51:15.471Z,11.98
2023-05-14T14:53:42.124Z,12.08
2023-05-14T14:56:11.014Z,11.95
2023-05-14T14:58:38.453Z,11.94
2023-05-14T15:01:05.372Z,11.82
2023-05-14T15:03:32.465Z,11.77
2023-05-14T15:06:01.628Z,11.66
2023-05-14T15:08:30.658Z,11.63
2023-05-14T15:10:57.366Z,11.61
2023-05-14T15:13:24.792Z,11.50
2023-05-14T15:15:52.663Z,11.50
2023-05-14T15:18:19.505Z,11.48
2023-05-14T15:20:48.788Z,11.48
2023-05-14T15:23:17.733Z,11.45
2023-05-14T15:25:49.175Z,11.41
2023-05-14T15:28:16.049Z,11.38
2023-05-14T15:30:42.747Z,11.43
2023-05-14T15:33:09.439Z,11.45
2023-05-14T15:35:36.751Z,11.49
2023-05-14T15:38:09.284Z,11.43
2023-05-14T15:40:38.175Z,11.44
2023-05-14T15:43:06.938Z,11.37
2023-05-14T15:45:33.561Z,11.44
2023-05-14T15:48:02.344Z,11.47
2023-05-14T15:50:28.971Z,11.48
2023-05-14T15:52:55.623Z,11.59
2023-05-14T15:55:25.133Z,11.47
2023-05-14T15:57:51.706Z,11.28
2023-05-14T16:00:24.858Z,11.25
2023-05-14T16:02:52.675Z,11.40
2023-05-14T16:05:19.502Z,11.43
2023-05-14T16:07:48.178Z,11.36
2023-05-14T16:10:16.973Z,11.35
2023-05-14T16:12:45.907Z,11.36
2023-05-14T16:15:14.748Z,11.37
2023-05-14T16:17:41.765Z,11.39
2023-05-14T16:20:09.622Z,11.30
2023-05-14T16:22:38.508Z,11.33
2023-05-14T16:25:05.922Z,11.23
2023-05-14T16:27:36.068Z,11.39
2023-05-14T16:30:02.803Z,11.25
2023-05-14T16:32:31.664Z,11.30
2023-05-14T16:35:02.565Z,11.33
2023-05-14T16:37:29.159Z,11.44
2023-05-14T16:39:55.878Z,11.42
2023-05-14T16:42:25.167Z,11.39
2023-05-14T16:44:51.787Z,11.36
2023-05-14T16:47:18.363Z,11.48
2023-05-14T16:49:47.192Z,11.43
2023-05-14T16:52:13.754Z,11.40
2023-05-14T16:54:43.276Z,11.54
2023-05-14T16:57:09.914Z,11.54
2023-05-14T16:59:41.733Z,11.54
2023-05-14T17:02:08.725Z,11.55
2023-05-14T17:04:38.772Z,11.45
2023-05-14T17:07:05.572Z,11.36
2023-05-14T17:09:32.098Z,11.53
2023-05-14T17:11:58.652Z,11.52
2023-05-14T17:18:16.833Z,11.67
2023-05-14T17:20:43.517Z,11.66
2023-05-14T17:23:10.067Z,11.69
2023-05-14T17:25:36.840Z,11.69
2023-05-14T17:28:03.659Z,11.54
2023-05-14T17:30:30.215Z,11.71
2023-05-14T17:32:59.921Z,11.49
2023-05-14T17:35:26.662Z,11.49
2023-05-14T17:37:53.301Z,11.47
2023-05-14T17:40:22.142Z,11.49
2023-05-14T17:42:51.191Z,11.42
2023-05-14T17:45:20.798Z,11.49
2023-05-14T17:47:49.201Z,11.45
2023-05-14T17:50:15.955Z,11.44
2023-05-14T17:52:44.599Z,11.44
2023-05-14T17:55:13.611Z,11.29
2023-05-14T17:57:40.288Z,11.83
2023-05-14T18:00:12.695Z,11.76
2023-05-14T18:02:43.130Z,11.78
2023-05-14T18:05:09.922Z,11.74
2023-05-14T18:07:38.817Z,11.67
2023-05-14T18:10:08.122Z,11.88
2023-05-14T18:12:34.902Z,11.81
2023-05-14T18:15:04.449Z,11.80
2023-05-14T18:17:33.373Z,11.91
2023-05-14T18:20:00.271Z,11.92
2023-05-14T18:22:26.888Z,11.88
2023-05-14T18:24:53.411Z,12.05
2023-05-14T18:27:20.066Z,12.16
2023-05-14T18:29:46.781Z,12.16
2023-05-14T18:32:13.336Z,11.70
2023-05-14T18:34:44.378Z,11.73
2023-05-14T18:37:13.712Z,11.60
2023-05-14T18:39:42.813Z,11.55
2023-05-14T18:42:09.956Z,11.61
2023-05-14T18:44:36.582Z,11.52
2023-05-14T18:47:05.981Z,11.47
2023-05-14T18:49:34.780Z,11.53
2023-05-14T18:52:01.433Z,11.64
2023-05-14T18:54:30.092Z,11.61
2023-05-14T18:56:56.711Z,11.51
2023-05-14T18:59:26.252Z,11.65
2023-05-14T19:01:53.162Z,11.64
2023-05-14T19:04:26.994Z,11.69
2023-05-14T19:06:55.823Z,11.77
2023-05-14T19:09:22.915Z,11.61
2023-05-14T19:11:50.431Z,11.76
2023-05-14T19:14:16.974Z,11.84
2023-05-14T19:17:20.586Z,11.75
2023-05-14T19:26:43.095Z,11.72
2023-05-14T19:35:39.768Z,11.91
2023-05-14T19:41:46.901Z,11.93
2023-05-14T19:44:13.539Z,11.91
2023-05-14T19:46:40.635Z,11.84
2023-05-14T20:02:21.703Z,11.89
2023-05-14T20:04:48.434Z,12.03
2023-05-14T20:07:15.774Z,12.06
2023-05-14T20:09:42.504Z,11.95
2023-05-14T20:12:12.934Z,11.91
2023-05-14T20:14:41.055Z,11.87
2023-05-14T20:17:07.761Z,11.84
2023-05-14T20:19:41.466Z,11.99
2023-05-14T20:22:08.014Z,12.12
2023-05-14T20:24:34.589Z,12.09
2023-05-14T20:27:03.412Z,12.11
2023-05-14T20:29:32.341Z,12.07
2023-05-14T20:31:58.937Z,12.18
2023-05-14T20:34:25.530Z,12.21
2023-05-14T20:36:55.223Z,12.32
2023-05-14T20:39:24.073Z,12.37
2023-05-14T20:41:50.650Z,12.41
2023-05-14T20:44:18.431Z,12.31
2023-05-14T20:46:49.750Z,12.13
2023-05-14T20:49:16.344Z,12.02
2023-05-14T20:51:45.196Z,12.16
2023-05-14T20:54:16.524Z,12.14
2023-05-14T20:56:43.278Z,12.22
2023-05-14T20:59:09.891Z,12.31
2023-05-14T21:01:39.604Z,12.02
2023-05-14T21:04:07.019Z,12.08
2023-05-14T21:06:33.736Z,12.15
2023-05-14T21:09:00.602Z,12.25
2023-05-14T21:11:29.763Z,12.27
2023-05-14T21:13:56.326Z,12.15
2023-05-14T21:16:25.861Z,12.13
2023-05-14T21:18:52.499Z,12.14
2023-05-14T21:21:19.089Z,12.15
2023-05-14T21:23:45.917Z,12.23
2023-05-14T21:26:12.912Z,12.23
2023-05-14T21:28:42.239Z,12.10
2023-05-14T21:31:11.707Z,12.16
2023-05-14T21:33:41.078Z,12.17
2023-05-14T21:36:10.974Z,12.22
2023-05-14T21:38:40.287Z,12.28
2023-05-14T21:41:06.873Z,12.26
2023-05-14T21:43:36.898Z,12.22
2023-05-14T21:46:05.990Z,12.25
2023-05-14T21:48:32.502Z,12.11
2023-05-14T21:51:02.091Z,12.07
2023-05-14T21:53:28.690Z,12.05
2023-05-14T21:55:58.034Z,11.97
2023-05-14T21:58:24.677Z,12.05
2023-05-14T22:00:51.503Z,12.04
2023-05-14T22:03:22.917Z,12.03
2023-05-14T22:05:53.219Z,12.10
2023-05-14T22:08:19.830Z,12.12
2023-05-14T22:10:47.054Z,12.02
2023-05-14T22:13:16.068Z,12.19
2023-05-14T22:15:44.875Z,11.96
2023-05-14T22:18:15.486Z,12.08
2023-05-14T22:20:45.209Z,11.95
2023-05-14T22:23:11.914Z,12.02
2023-05-14T22:25:38.866Z,12.11
2023-05-14T22:28:08.075Z,12.21
2023-05-14T22:30:34.814Z,12.28
2023-05-14T22:33:01.447Z,12.26
2023-05-14T22:35:28.148Z,12.43
2023-05-14T22:37:59.504Z,12.31
2023-05-14T22:40:28.409Z,12.35
2023-05-14T22:42:57.510Z,12.50
2023-05-14T22:45:24.132Z,12.50
2023-05-14T22:47:54.292Z,11.99
2023-05-14T22:50:20.914Z,12.17
2023-05-14T22:52:47.524Z,12.33
2023-05-14T22:55:16.236Z,12.26
2023-05-14T22:57:43.386Z,12.33
2023-05-14T23:00:11.496Z,12.48
2023-05-14T23:02:38.266Z,12.24
2023-05-14T23:05:08.557Z,12.30
2023-05-14T23:07:38.094Z,12.22
2023-05-14T23:10:07.402Z,11.95
2023-05-14T23:12:38.756Z,12.12
2023-05-14T23:15:08.361Z,11.85
2023-05-14T23:17:36.241Z,11.97
2023-05-14T23:20:06.058Z,12.27
2023-05-14T23:22:32.613Z,12.13
2023-05-14T23:24:59.450Z,12.17
2023-05-14T23:27:28.410Z,12.27
2023-05-14T23:29:57.665Z,12.37
2023-05-14T23:32:24.742Z,12.43
2023-05-14T23:34:53.876Z,12.48
2023-05-14T23:37:20.493Z,12.47
2023-05-14T23:39:49.769Z,12.56
2023-05-14T23:42:21.247Z,12.60
2023-05-14T23:44:52.579Z,12.58
2023-05-14T23:47:19.286Z,12.72
2023-05-14T23:49:45.858Z,12.73
2023-05-14T23:52:12.718Z,12.73
2023-05-14T23:54:41.488Z,12.42
2023-05-14T23:57:14.554Z,12.60
2023-05-14T23:59:41.255Z,12.68
